Colton, Ohio
Current Conditions -  °F | °C
As of 4:39 PM on Wednesday 26 Nov 2014 (Local Time) from KTOL Reporting Station
Overcast Overcast  
Wind Chill: 22°   Ceiling: 2300
Heat Index: 30°   Visibility: 10mi
Dew Point: 25°   Wind: 9mph
Humidity: 80%   Direction: 350°N
Pressure: 30.09"   Gusts: NA
Location:  41.46°N, 83.95°W
Report Text: KTOL 262139Z 35008KT 10SM BKN023 OVC039 M01/M04 A3009 RMK AO2
Loading
Personal Weather Stations






























Interactive Weather Map New forecast layout! Learn more

10-Day Weather Forecast

Advertisements
Track Severe Weather on mobile